sensor_id;sensor_type;location;lat;lon;timestamp;temperature;humidity
38995;DHT22;24769;18.712;99.000;2023-04-06T00:00:26;21.40;99.90
38995;DHT22;24769;18.712;99.000;2023-04-06T00:02:53;21.40;99.90
38995;DHT22;24769;18.712;99.000;2023-04-06T00:05:20;21.50;99.90
38995;DHT22;24769;18.712;99.000;2023-04-06T00:07:47;21.60;99.90
38995;DHT22;24769;18.712;99.000;2023-04-06T00:10:15;21.80;99.90
38995;DHT22;24769;18.712;99.000;2023-04-06T00:12:42;21.90;99.90
38995;DHT22;24769;18.712;99.000;2023-04-06T00:15:09;21.90;99.90
38995;DHT22;24769;18.712;99.000;2023-04-06T00:17:36;22.00;99.90
38995;DHT22;24769;18.712;99.000;2023-04-06T00:20:03;22.10;99.90
38995;DHT22;24769;18.712;99.000;2023-04-06T00:22:30;22.30;99.90
38995;DHT22;24769;18.712;99.000;2023-04-06T00:24:57;22.30;99.90
38995;DHT22;24769;18.712;99.000;2023-04-06T00:27:23;22.20;99.90
38995;DHT22;24769;18.712;99.000;2023-04-06T00:29:50;22.30;99.90
38995;DHT22;24769;18.712;99.000;2023-04-06T00:32:17;22.50;99.90
38995;DHT22;24769;18.712;99.000;2023-04-06T00:34:44;22.70;99.90
38995;DHT22;24769;18.712;99.000;2023-04-06T00:37:11;22.90;99.90
38995;DHT22;24769;18.712;99.000;2023-04-06T00:39:38;23.00;99.90
38995;DHT22;24769;18.712;99.000;2023-04-06T00:42:14;23.00;99.90
38995;DHT22;24769;18.712;99.000;2023-04-06T00:44:41;23.20;99.90
38995;DHT22;24769;18.712;99.000;2023-04-06T00:47:09;23.40;99.90
38995;DHT22;24769;18.712;99.000;2023-04-06T00:49:35;23.50;99.90
38995;DHT22;24769;18.712;99.000;2023-04-06T00:52:02;23.50;99.90
38995;DHT22;24769;18.712;99.000;2023-04-06T00:54:29;23.70;99.90
38995;DHT22;24769;18.712;99.000;2023-04-06T00:56:57;23.80;99.90
38995;DHT22;24769;18.712;99.000;2023-04-06T00:59:24;24.00;91.70
38995;DHT22;24769;18.712;99.000;2023-04-06T01:01:51;24.10;92.40
38995;DHT22;24769;18.712;99.000;2023-04-06T01:04:17;24.20;80.00
38995;DHT22;24769;18.712;99.000;2023-04-06T01:06:44;24.30;75.00
38995;DHT22;24769;18.712;99.000;2023-04-06T01:09:11;24.30;71.20
38995;DHT22;24769;18.712;99.000;2023-04-06T01:11:38;24.50;67.10
38995;DHT22;24769;18.712;99.000;2023-04-06T01:14:05;24.70;65.90
38995;DHT22;24769;18.712;99.000;2023-04-06T01:16:32;24.70;66.80
38995;DHT22;24769;18.712;99.000;2023-04-06T01:18:59;24.90;59.60
38995;DHT22;24769;18.712;99.000;2023-04-06T01:21:26;24.90;57.00
38995;DHT22;24769;18.712;99.000;2023-04-06T01:23:52;24.90;55.70
38995;DHT22;24769;18.712;99.000;2023-04-06T01:26:19;25.10;52.00
38995;DHT22;24769;18.712;99.000;2023-04-06T01:28:46;25.30;53.30
38995;DHT22;24769;18.712;99.000;2023-04-06T01:31:13;25.50;47.10
38995;DHT22;24769;18.712;99.000;2023-04-06T01:33:39;25.50;47.30
38995;DHT22;24769;18.712;99.000;2023-04-06T01:36:06;25.70;45.10
38995;DHT22;24769;18.712;99.000;2023-04-06T01:38:33;25.90;45.70
38995;DHT22;24769;18.712;99.000;2023-04-06T01:41:00;26.10;46.80
38995;DHT22;24769;18.712;99.000;2023-04-06T01:43:27;26.20;44.30
38995;DHT22;24769;18.712;99.000;2023-04-06T01:45:54;26.30;44.00
38995;DHT22;24769;18.712;99.000;2023-04-06T01:48:23;26.30;43.50
38995;DHT22;24769;18.712;99.000;2023-04-06T01:50:49;26.30;42.40
38995;DHT22;24769;18.712;99.000;2023-04-06T01:53:17;26.10;44.10
38995;DHT22;24769;18.712;99.000;2023-04-06T01:55:45;26.30;42.40
38995;DHT22;24769;18.712;99.000;2023-04-06T01:58:12;26.40;41.90
38995;DHT22;24769;18.712;99.000;2023-04-06T02:00:39;26.70;41.20
38995;DHT22;24769;18.712;99.000;2023-04-06T02:03:06;26.80;41.30
38995;DHT22;24769;18.712;99.000;2023-04-06T02:05:34;26.90;37.70
38995;DHT22;24769;18.712;99.000;2023-04-06T02:08:07;27.00;35.30
38995;DHT22;24769;18.712;99.000;2023-04-06T02:10:34;27.10;32.20
38995;DHT22;24769;18.712;99.000;2023-04-06T02:13:01;27.10;34.00
38995;DHT22;24769;18.712;99.000;2023-04-06T02:15:28;27.40;35.10
38995;DHT22;24769;18.712;99.000;2023-04-06T02:17:55;27.70;31.90
38995;DHT22;24769;18.712;99.000;2023-04-06T02:20:21;27.90;29.70
38995;DHT22;24769;18.712;99.000;2023-04-06T02:22:48;27.70;27.80
38995;DHT22;24769;18.712;99.000;2023-04-06T02:25:15;27.70;27.80
38995;DHT22;24769;18.712;99.000;2023-04-06T02:27:42;27.80;28.80
38995;DHT22;24769;18.712;99.000;2023-04-06T02:30:09;28.20;28.00
38995;DHT22;24769;18.712;99.000;2023-04-06T02:32:36;28.40;25.40
38995;DHT22;24769;18.712;99.000;2023-04-06T02:35:03;28.40;22.70
38995;DHT22;24769;18.712;99.000;2023-04-06T02:37:30;28.20;23.50
38995;DHT22;24769;18.712;99.000;2023-04-06T02:39:57;28.30;23.80
38995;DHT22;24769;18.712;99.000;2023-04-06T02:42:24;28.50;22.80
38995;DHT22;24769;18.712;99.000;2023-04-06T02:44:50;28.50;21.60
38995;DHT22;24769;18.712;99.000;2023-04-06T02:47:17;28.80;21.50
38995;DHT22;24769;18.712;99.000;2023-04-06T02:49:44;29.00;22.40
38995;DHT22;24769;18.712;99.000;2023-04-06T02:52:11;29.10;23.90
38995;DHT22;24769;18.712;99.000;2023-04-06T02:54:37;29.10;22.70
38995;DHT22;24769;18.712;99.000;2023-04-06T02:57:07;29.20;22.10
38995;DHT22;24769;18.712;99.000;2023-04-06T02:59:34;29.20;23.40
38995;DHT22;24769;18.712;99.000;2023-04-06T03:02:01;29.40;23.30
38995;DHT22;24769;18.712;99.000;2023-04-06T03:04:27;29.50;23.10
38995;DHT22;24769;18.712;99.000;2023-04-06T03:06:54;29.60;22.70
38995;DHT22;24769;18.712;99.000;2023-04-06T03:09:21;29.60;21.00
38995;DHT22;24769;18.712;99.000;2023-04-06T03:11:48;29.60;21.90
38995;DHT22;24769;18.712;99.000;2023-04-06T03:14:15;29.80;21.50
38995;DHT22;24769;18.712;99.000;2023-04-06T03:16:43;30.00;21.20
38995;DHT22;24769;18.712;99.000;2023-04-06T03:19:12;30.10;19.90
38995;DHT22;24769;18.712;99.000;2023-04-06T03:21:39;29.80;17.50
38995;DHT22;24769;18.712;99.000;2023-04-06T03:24:06;29.90;17.40
38995;DHT22;24769;18.712;99.000;2023-04-06T03:26:33;29.90;17.90
38995;DHT22;24769;18.712;99.000;2023-04-06T03:28:59;30.20;17.40
38995;DHT22;24769;18.712;99.000;2023-04-06T03:31:26;30.10;18.20
38995;DHT22;24769;18.712;99.000;2023-04-06T03:33:53;30.10;17.20
38995;DHT22;24769;18.712;99.000;2023-04-06T03:36:20;30.30;16.70
38995;DHT22;24769;18.712;99.000;2023-04-06T03:38:47;30.40;14.40
38995;DHT22;24769;18.712;99.000;2023-04-06T03:41:14;30.50;15.90
38995;DHT22;24769;18.712;99.000;2023-04-06T03:43:40;30.40;15.80
38995;DHT22;24769;18.712;99.000;2023-04-06T03:46:07;30.60;15.70
38995;DHT22;24769;18.712;99.000;2023-04-06T03:48:34;30.70;15.30
38995;DHT22;24769;18.712;99.000;2023-04-06T03:51:00;31.00;16.20
38995;DHT22;24769;18.712;99.000;2023-04-06T03:53:27;31.20;15.60
38995;DHT22;24769;18.712;99.000;2023-04-06T03:55:54;31.30;14.80
38995;DHT22;24769;18.712;99.000;2023-04-06T03:58:21;31.40;14.60
38995;DHT22;24769;18.712;99.000;2023-04-06T04:00:47;31.60;13.50
38995;DHT22;24769;18.712;99.000;2023-04-06T04:03:14;31.70;13.10
38995;DHT22;24769;18.712;99.000;2023-04-06T04:05:41;31.60;11.90
38995;DHT22;24769;18.712;99.000;2023-04-06T04:08:08;31.60;13.30
38995;DHT22;24769;18.712;99.000;2023-04-06T04:10:35;31.70;13.60
38995;DHT22;24769;18.712;99.000;2023-04-06T04:13:02;31.70;13.20
38995;DHT22;24769;18.712;99.000;2023-04-06T04:15:28;32.00;12.60
38995;DHT22;24769;18.712;99.000;2023-04-06T04:17:55;32.00;10.60
38995;DHT22;24769;18.712;99.000;2023-04-06T04:20:22;32.20;12.50
38995;DHT22;24769;18.712;99.000;2023-04-06T04:22:49;32.00;11.70
38995;DHT22;24769;18.712;99.000;2023-04-06T04:25:16;31.90;11.90
38995;DHT22;24769;18.712;99.000;2023-04-06T04:27:42;32.20;12.60
38995;DHT22;24769;18.712;99.000;2023-04-06T04:30:09;32.30;10.00
38995;DHT22;24769;18.712;99.000;2023-04-06T04:32:36;32.40;10.30
38995;DHT22;24769;18.712;99.000;2023-04-06T04:35:03;32.40;10.70
38995;DHT22;24769;18.712;99.000;2023-04-06T04:37:30;32.60;12.70
38995;DHT22;24769;18.712;99.000;2023-04-06T04:39:56;32.60;10.00
38995;DHT22;24769;18.712;99.000;2023-04-06T04:42:23;32.70;10.90
38995;DHT22;24769;18.712;99.000;2023-04-06T04:44:50;32.50;9.80
38995;DHT22;24769;18.712;99.000;2023-04-06T04:47:16;32.60;9.00
38995;DHT22;24769;18.712;99.000;2023-04-06T04:49:43;32.60;9.90
38995;DHT22;24769;18.712;99.000;2023-04-06T04:52:10;32.80;9.90
38995;DHT22;24769;18.712;99.000;2023-04-06T04:54:36;32.90;8.40
38995;DHT22;24769;18.712;99.000;2023-04-06T04:57:03;33.00;9.20
38995;DHT22;24769;18.712;99.000;2023-04-06T04:59:30;33.00;8.80
38995;DHT22;24769;18.712;99.000;2023-04-06T05:01:57;33.20;9.30
38995;DHT22;24769;18.712;99.000;2023-04-06T05:04:23;33.60;9.00
38995;DHT22;24769;18.712;99.000;2023-04-06T05:06:50;33.60;10.20
38995;DHT22;24769;18.712;99.000;2023-04-06T05:09:17;33.60;8.50
38995;DHT22;24769;18.712;99.000;2023-04-06T05:11:44;33.80;8.60
38995;DHT22;24769;18.712;99.000;2023-04-06T05:14:11;33.50;9.70
38995;DHT22;24769;18.712;99.000;2023-04-06T05:16:38;33.40;8.40
38995;DHT22;24769;18.712;99.000;2023-04-06T05:19:05;33.30;9.40
38995;DHT22;24769;18.712;99.000;2023-04-06T05:21:31;33.30;8.30
38995;DHT22;24769;18.712;99.000;2023-04-06T05:23:58;33.40;7.90
38995;DHT22;24769;18.712;99.000;2023-04-06T05:26:25;33.50;8.00
38995;DHT22;24769;18.712;99.000;2023-04-06T05:28:51;33.50;7.00
38995;DHT22;24769;18.712;99.000;2023-04-06T05:31:18;33.80;8.80
38995;DHT22;24769;18.712;99.000;2023-04-06T05:33:45;33.70;7.10
38995;DHT22;24769;18.712;99.000;2023-04-06T05:36:12;33.40;7.80
38995;DHT22;24769;18.712;99.000;2023-04-06T05:38:40;33.70;7.70
38995;DHT22;24769;18.712;99.000;2023-04-06T05:41:07;34.10;8.40
38995;DHT22;24769;18.712;99.000;2023-04-06T05:43:34;34.20;8.90
38995;DHT22;24769;18.712;99.000;2023-04-06T05:46:00;34.10;8.30
38995;DHT22;24769;18.712;99.000;2023-04-06T05:48:27;34.20;8.70
38995;DHT22;24769;18.712;99.000;2023-04-06T05:50:54;34.20;8.20
38995;DHT22;24769;18.712;99.000;2023-04-06T05:53:21;34.20;7.90
38995;DHT22;24769;18.712;99.000;2023-04-06T05:55:47;34.20;7.80
38995;DHT22;24769;18.712;99.000;2023-04-06T05:58:14;34.40;7.60
38995;DHT22;24769;18.712;99.000;2023-04-06T06:00:43;34.40;6.40
38995;DHT22;24769;18.712;99.000;2023-04-06T06:03:12;34.40;7.50
38995;DHT22;24769;18.712;99.000;2023-04-06T06:05:39;34.40;5.60
38995;DHT22;24769;18.712;99.000;2023-04-06T06:08:06;34.50;6.50
38995;DHT22;24769;18.712;99.000;2023-04-06T06:10:33;34.60;7.50
38995;DHT22;24769;18.712;99.000;2023-04-06T06:12:59;34.90;7.50
38995;DHT22;24769;18.712;99.000;2023-04-06T06:15:26;34.70;7.40
38995;DHT22;24769;18.712;99.000;2023-04-06T06:17:53;34.70;7.40
38995;DHT22;24769;18.712;99.000;2023-04-06T06:20:19;34.50;7.20
38995;DHT22;24769;18.712;99.000;2023-04-06T06:22:46;34.50;7.80
38995;DHT22;24769;18.712;99.000;2023-04-06T06:25:13;34.80;7.00
38995;DHT22;24769;18.712;99.000;2023-04-06T06:27:40;34.90;7.40
38995;DHT22;24769;18.712;99.000;2023-04-06T06:30:07;34.90;7.60
38995;DHT22;24769;18.712;99.000;2023-04-06T06:32:33;34.80;8.20
38995;DHT22;24769;18.712;99.000;2023-04-06T06:35:00;34.90;8.60
38995;DHT22;24769;18.712;99.000;2023-04-06T06:37:27;34.90;7.90
38995;DHT22;24769;18.712;99.000;2023-04-06T06:39:53;35.00;7.20
38995;DHT22;24769;18.712;99.000;2023-04-06T06:42:20;35.00;7.30
38995;DHT22;24769;18.712;99.000;2023-04-06T06:44:47;34.80;6.60
38995;DHT22;24769;18.712;99.000;2023-04-06T06:47:14;35.00;7.10
38995;DHT22;24769;18.712;99.000;2023-04-06T06:49:41;34.90;7.10
38995;DHT22;24769;18.712;99.000;2023-04-06T06:52:07;35.00;8.00
38995;DHT22;24769;18.712;99.000;2023-04-06T06:54:34;34.90;6.70
38995;DHT22;24769;18.712;99.000;2023-04-06T06:57:01;35.00;7.50
38995;DHT22;24769;18.712;99.000;2023-04-06T06:59:28;35.00;7.50
38995;DHT22;24769;18.712;99.000;2023-04-06T07:01:55;35.10;6.30
38995;DHT22;24769;18.712;99.000;2023-04-06T07:04:21;35.30;7.50
38995;DHT22;24769;18.712;99.000;2023-04-06T07:06:48;35.40;6.60
38995;DHT22;24769;18.712;99.000;2023-04-06T07:09:15;35.30;7.40
38995;DHT22;24769;18.712;99.000;2023-04-06T07:11:41;35.20;7.40
38995;DHT22;24769;18.712;99.000;2023-04-06T07:14:08;35.20;6.50
38995;DHT22;24769;18.712;99.000;2023-04-06T07:16:35;35.20;6.50
38995;DHT22;24769;18.712;99.000;2023-04-06T07:19:02;35.20;5.30
38995;DHT22;24769;18.712;99.000;2023-04-06T07:21:29;35.20;6.80
38995;DHT22;24769;18.712;99.000;2023-04-06T07:23:55;35.30;7.50
38995;DHT22;24769;18.712;99.000;2023-04-06T07:26:22;35.40;6.80
38995;DHT22;24769;18.712;99.000;2023-04-06T07:28:49;35.30;6.90
38995;DHT22;24769;18.712;99.000;2023-04-06T07:31:16;35.40;7.10
38995;DHT22;24769;18.712;99.000;2023-04-06T07:33:42;35.30;6.80
38995;DHT22;24769;18.712;99.000;2023-04-06T07:36:09;35.20;6.90
38995;DHT22;24769;18.712;99.000;2023-04-06T07:38:36;35.40;8.00
38995;DHT22;24769;18.712;99.000;2023-04-06T07:41:02;35.50;7.60
38995;DHT22;24769;18.712;99.000;2023-04-06T07:43:30;35.40;7.30
38995;DHT22;24769;18.712;99.000;2023-04-06T07:45:57;35.50;6.40
38995;DHT22;24769;18.712;99.000;2023-04-06T07:48:25;35.50;5.70
38995;DHT22;24769;18.712;99.000;2023-04-06T07:50:54;35.50;6.40
38995;DHT22;24769;18.712;99.000;2023-04-06T07:53:26;35.30;7.20
38995;DHT22;24769;18.712;99.000;2023-04-06T07:55:53;35.40;6.30
38995;DHT22;24769;18.712;99.000;2023-04-06T07:58:21;35.50;7.20
38995;DHT22;24769;18.712;99.000;2023-04-06T08:00:48;35.50;7.90
38995;DHT22;24769;18.712;99.000;2023-04-06T08:03:15;35.40;6.10
38995;DHT22;24769;18.712;99.000;2023-04-06T08:05:42;35.40;6.60
38995;DHT22;24769;18.712;99.000;2023-04-06T08:08:09;35.40;5.10
38995;DHT22;24769;18.712;99.000;2023-04-06T08:10:36;35.30;5.30
38995;DHT22;24769;18.712;99.000;2023-04-06T08:13:02;35.30;6.70
38995;DHT22;24769;18.712;99.000;2023-04-06T08:15:29;35.30;6.30
38995;DHT22;24769;18.712;99.000;2023-04-06T08:17:56;35.20;5.20
38995;DHT22;24769;18.712;99.000;2023-04-06T08:20:23;35.20;7.40
38995;DHT22;24769;18.712;99.000;2023-04-06T08:22:50;35.30;6.60
38995;DHT22;24769;18.712;99.000;2023-04-06T08:25:17;35.20;7.20
38995;DHT22;24769;18.712;99.000;2023-04-06T08:27:44;35.20;7.40
38995;DHT22;24769;18.712;99.000;2023-04-06T08:30:10;35.20;7.90
38995;DHT22;24769;18.712;99.000;2023-04-06T08:32:37;35.20;6.50
38995;DHT22;24769;18.712;99.000;2023-04-06T08:35:04;35.10;6.90
38995;DHT22;24769;18.712;99.000;2023-04-06T08:37:31;35.00;6.10
38995;DHT22;24769;18.712;99.000;2023-04-06T08:39:58;35.00;5.50
38995;DHT22;24769;18.712;99.000;2023-04-06T08:42:26;34.90;7.20
38995;DHT22;24769;18.712;99.000;2023-04-06T08:44:55;34.80;8.40
38995;DHT22;24769;18.712;99.000;2023-04-06T08:47:22;34.70;7.90
38995;DHT22;24769;18.712;99.000;2023-04-06T08:49:49;34.70;7.40
38995;DHT22;24769;18.712;99.000;2023-04-06T08:52:19;34.80;5.80
38995;DHT22;24769;18.712;99.000;2023-04-06T08:54:46;34.80;6.50
38995;DHT22;24769;18.712;99.000;2023-04-06T08:57:13;34.70;7.40
38995;DHT22;24769;18.712;99.000;2023-04-06T08:59:41;34.60;7.10
38995;DHT22;24769;18.712;99.000;2023-04-06T09:02:13;34.50;6.00
38995;DHT22;24769;18.712;99.000;2023-04-06T09:04:44;34.50;5.90
38995;DHT22;24769;18.712;99.000;2023-04-06T09:07:12;34.40;6.20
38995;DHT22;24769;18.712;99.000;2023-04-06T09:09:39;34.20;6.50
38995;DHT22;24769;18.712;99.000;2023-04-06T09:12:09;34.20;6.30
38995;DHT22;24769;18.712;99.000;2023-04-06T09:14:39;34.20;6.00
38995;DHT22;24769;18.712;99.000;2023-04-06T09:17:06;34.10;7.90
38995;DHT22;24769;18.712;99.000;2023-04-06T09:19:33;33.90;8.90
38995;DHT22;24769;18.712;99.000;2023-04-06T09:22:04;33.90;9.30
38995;DHT22;24769;18.712;99.000;2023-04-06T09:24:49;33.90;9.00
38995;DHT22;24769;18.712;99.000;2023-04-06T09:27:16;33.80;9.20
38995;DHT22;24769;18.712;99.000;2023-04-06T09:29:44;33.80;10.70
38995;DHT22;24769;18.712;99.000;2023-04-06T09:32:12;33.80;12.20
38995;DHT22;24769;18.712;99.000;2023-04-06T09:34:42;33.70;11.30
38995;DHT22;24769;18.712;99.000;2023-04-06T09:37:19;33.70;11.20
38995;DHT22;24769;18.712;99.000;2023-04-06T09:39:46;33.60;13.10
38995;DHT22;24769;18.712;99.000;2023-04-06T09:42:24;33.50;13.30
38995;DHT22;24769;18.712;99.000;2023-04-06T09:44:51;33.50;13.50
38995;DHT22;24769;18.712;99.000;2023-04-06T09:47:20;33.50;13.60
38995;DHT22;24769;18.712;99.000;2023-04-06T09:49:50;33.40;14.00
38995;DHT22;24769;18.712;99.000;2023-04-06T09:52:23;33.40;15.20
38995;DHT22;24769;18.712;99.000;2023-04-06T09:54:55;33.30;16.90
38995;DHT22;24769;18.712;99.000;2023-04-06T10:00:08;33.30;13.90
38995;DHT22;24769;18.712;99.000;2023-04-06T10:05:42;33.20;15.40
38995;DHT22;24769;18.712;99.000;2023-04-06T10:08:11;33.10;18.20
38995;DHT22;24769;18.712;99.000;2023-04-06T10:10:38;33.00;16.80
38995;DHT22;24769;18.712;99.000;2023-04-06T10:13:05;32.80;15.70
38995;DHT22;24769;18.712;99.000;2023-04-06T10:15:32;32.70;16.30
38995;DHT22;24769;18.712;99.000;2023-04-06T10:18:00;32.60;18.00
38995;DHT22;24769;18.712;99.000;2023-04-06T10:25:54;32.30;25.30
38995;DHT22;24769;18.712;99.000;2023-04-06T10:28:21;32.20;26.50
38995;DHT22;24769;18.712;99.000;2023-04-06T10:30:48;32.00;26.20
38995;DHT22;24769;18.712;99.000;2023-04-06T10:33:18;31.90;27.50
38995;DHT22;24769;18.712;99.000;2023-04-06T10:35:46;31.80;27.50
38995;DHT22;24769;18.712;99.000;2023-04-06T10:38:13;31.60;27.70
38995;DHT22;24769;18.712;99.000;2023-04-06T10:40:41;31.50;28.00
38995;DHT22;24769;18.712;99.000;2023-04-06T10:43:13;31.40;28.60
38995;DHT22;24769;18.712;99.000;2023-04-06T10:45:44;31.30;30.70
38995;DHT22;24769;18.712;99.000;2023-04-06T10:48:18;31.10;30.90
38995;DHT22;24769;18.712;99.000;2023-04-06T10:50:48;31.00;32.80
38995;DHT22;24769;18.712;99.000;2023-04-06T10:53:25;30.90;34.00
38995;DHT22;24769;18.712;99.000;2023-04-06T10:55:55;30.70;35.00
38995;DHT22;24769;18.712;99.000;2023-04-06T10:58:26;30.60;31.70
38995;DHT22;24769;18.712;99.000;2023-04-06T11:00:54;30.40;32.40
38995;DHT22;24769;18.712;99.000;2023-04-06T11:03:22;30.30;32.30
38995;DHT22;24769;18.712;99.000;2023-04-06T11:05:50;30.20;31.30
38995;DHT22;24769;18.712;99.000;2023-04-06T11:08:31;30.20;31.90
38995;DHT22;24769;18.712;99.000;2023-04-06T11:11:05;30.00;33.40
38995;DHT22;24769;18.712;99.000;2023-04-06T11:13:43;29.80;34.30
38995;DHT22;24769;18.712;99.000;2023-04-06T11:16:21;29.80;36.90
38995;DHT22;24769;18.712;99.000;2023-04-06T11:18:53;29.50;39.60
38995;DHT22;24769;18.712;99.000;2023-04-06T11:24:12;29.40;40.50
38995;DHT22;24769;18.712;99.000;2023-04-06T11:26:41;29.30;41.10
38995;DHT22;24769;18.712;99.000;2023-04-06T11:29:10;29.20;41.50
38995;DHT22;24769;18.712;99.000;2023-04-06T11:31:41;29.10;42.50
38995;DHT22;24769;18.712;99.000;2023-04-06T11:34:13;29.10;44.10
38995;DHT22;24769;18.712;99.000;2023-04-06T11:36:44;28.90;45.90
38995;DHT22;24769;18.712;99.000;2023-04-06T11:39:19;28.70;48.10
38995;DHT22;24769;18.712;99.000;2023-04-06T11:41:57;28.60;47.10
38995;DHT22;24769;18.712;99.000;2023-04-06T11:44:39;28.50;48.60
38995;DHT22;24769;18.712;99.000;2023-04-06T11:47:08;28.50;51.20
38995;DHT22;24769;18.712;99.000;2023-04-06T11:49:40;28.40;50.60
38995;DHT22;24769;18.712;99.000;2023-04-06T11:52:20;28.30;51.20
38995;DHT22;24769;18.712;99.000;2023-04-06T11:54:48;28.30;53.80
38995;DHT22;24769;18.712;99.000;2023-04-06T11:57:16;28.30;54.30
38995;DHT22;24769;18.712;99.000;2023-04-06T11:59:44;28.20;56.20
38995;DHT22;24769;18.712;99.000;2023-04-06T12:02:11;28.10;58.00
38995;DHT22;24769;18.712;99.000;2023-04-06T12:04:38;28.00;59.90
38995;DHT22;24769;18.712;99.000;2023-04-06T12:07:05;27.90;60.70
38995;DHT22;24769;18.712;99.000;2023-04-06T12:09:32;27.90;61.10
38995;DHT22;24769;18.712;99.000;2023-04-06T12:12:00;27.80;60.60
38995;DHT22;24769;18.712;99.000;2023-04-06T12:14:28;27.70;61.40
38995;DHT22;24769;18.712;99.000;2023-04-06T12:16:57;27.60;60.00
38995;DHT22;24769;18.712;99.000;2023-04-06T12:19:24;27.50;58.70
38995;DHT22;24769;18.712;99.000;2023-04-06T12:21:52;27.50;63.10
38995;DHT22;24769;18.712;99.000;2023-04-06T12:24:20;27.40;63.60
38995;DHT22;24769;18.712;99.000;2023-04-06T12:26:47;27.30;66.30
38995;DHT22;24769;18.712;99.000;2023-04-06T12:29:19;27.30;65.70
38995;DHT22;24769;18.712;99.000;2023-04-06T12:31:46;27.30;65.40
38995;DHT22;24769;18.712;99.000;2023-04-06T12:34:13;27.30;66.00
38995;DHT22;24769;18.712;99.000;2023-04-06T12:36:41;27.20;67.90
38995;DHT22;24769;18.712;99.000;2023-04-06T12:39:08;27.10;68.80
38995;DHT22;24769;18.712;99.000;2023-04-06T12:41:35;27.10;69.20
38995;DHT22;24769;18.712;99.000;2023-04-06T12:44:01;26.90;70.50
38995;DHT22;24769;18.712;99.000;2023-04-06T12:46:29;26.90;69.40
38995;DHT22;24769;18.712;99.000;2023-04-06T12:48:58;26.90;67.60
38995;DHT22;24769;18.712;99.000;2023-04-06T12:51:28;26.90;67.60
38995;DHT22;24769;18.712;99.000;2023-04-06T12:53:54;26.90;68.00
38995;DHT22;24769;18.712;99.000;2023-04-06T12:56:21;26.90;68.80
38995;DHT22;24769;18.712;99.000;2023-04-06T12:58:50;26.90;68.40
38995;DHT22;24769;18.712;99.000;2023-04-06T13:01:17;26.80;71.70
38995;DHT22;24769;18.712;99.000;2023-04-06T13:03:43;26.70;70.80
38995;DHT22;24769;18.712;99.000;2023-04-06T13:06:11;26.60;71.40
38995;DHT22;24769;18.712;99.000;2023-04-06T13:08:40;26.60;69.10
38995;DHT22;24769;18.712;99.000;2023-04-06T13:11:07;26.50;69.30
38995;DHT22;24769;18.712;99.000;2023-04-06T13:13:37;26.50;68.90
38995;DHT22;24769;18.712;99.000;2023-04-06T13:16:06;26.50;69.10
38995;DHT22;24769;18.712;99.000;2023-04-06T13:18:33;26.50;68.50
38995;DHT22;24769;18.712;99.000;2023-04-06T13:21:00;26.50;69.10
38995;DHT22;24769;18.712;99.000;2023-04-06T13:23:27;26.40;69.20
38995;DHT22;24769;18.712;99.000;2023-04-06T13:26:05;26.40;70.50
38995;DHT22;24769;18.712;99.000;2023-04-06T13:28:34;26.30;72.30
38995;DHT22;24769;18.712;99.000;2023-04-06T13:31:02;26.30;73.00
38995;DHT22;24769;18.712;99.000;2023-04-06T13:33:30;26.20;74.10
38995;DHT22;24769;18.712;99.000;2023-04-06T13:35:57;26.20;75.20
38995;DHT22;24769;18.712;99.000;2023-04-06T13:38:24;26.10;77.70
38995;DHT22;24769;18.712;99.000;2023-04-06T13:40:51;26.00;78.10
38995;DHT22;24769;18.712;99.000;2023-04-06T13:43:17;26.00;80.40
38995;DHT22;24769;18.712;99.000;2023-04-06T13:45:50;26.00;81.60
38995;DHT22;24769;18.712;99.000;2023-04-06T13:48:17;26.00;83.20
38995;DHT22;24769;18.712;99.000;2023-04-06T13:50:44;26.10;82.80
38995;DHT22;24769;18.712;99.000;2023-04-06T13:53:24;26.20;82.30
38995;DHT22;24769;18.712;99.000;2023-04-06T13:56:01;26.20;81.50
38995;DHT22;24769;18.712;99.000;2023-04-06T13:58:28;26.00;84.60
38995;DHT22;24769;18.712;99.000;2023-04-06T14:00:54;25.80;84.70
38995;DHT22;24769;18.712;99.000;2023-04-06T14:03:22;25.80;87.00
38995;DHT22;24769;18.712;99.000;2023-04-06T14:05:49;25.80;87.00
38995;DHT22;24769;18.712;99.000;2023-04-06T14:08:16;25.90;86.90
38995;DHT22;24769;18.712;99.000;2023-04-06T14:10:42;26.00;87.60
38995;DHT22;24769;18.712;99.000;2023-04-06T14:13:09;25.90;86.40
38995;DHT22;24769;18.712;99.000;2023-04-06T14:15:36;25.80;87.40
38995;DHT22;24769;18.712;99.000;2023-04-06T14:18:03;25.70;87.80
38995;DHT22;24769;18.712;99.000;2023-04-06T14:20:32;25.60;92.30
38995;DHT22;24769;18.712;99.000;2023-04-06T14:23:03;25.60;91.30
38995;DHT22;24769;18.712;99.000;2023-04-06T14:25:30;25.50;92.90
38995;DHT22;24769;18.712;99.000;2023-04-06T14:27:58;25.60;92.80
38995;DHT22;24769;18.712;99.000;2023-04-06T14:30:24;25.60;94.10
38995;DHT22;24769;18.712;99.000;2023-04-06T14:32:51;25.50;92.80
38995;DHT22;24769;18.712;99.000;2023-04-06T14:35:18;25.40;93.70
38995;DHT22;24769;18.712;99.000;2023-04-06T14:37:45;25.40;94.90
38995;DHT22;24769;18.712;99.000;2023-04-06T14:40:11;25.50;94.10
38995;DHT22;24769;18.712;99.000;2023-04-06T14:42:38;25.60;92.80
38995;DHT22;24769;18.712;99.000;2023-04-06T14:45:06;25.60;93.20
38995;DHT22;24769;18.712;99.000;2023-04-06T14:47:33;25.40;94.70
38995;DHT22;24769;18.712;99.000;2023-04-06T14:49:59;25.30;96.40
38995;DHT22;24769;18.712;99.000;2023-04-06T14:52:26;25.20;94.60
38995;DHT22;24769;18.712;99.000;2023-04-06T14:54:53;25.10;96.90
38995;DHT22;24769;18.712;99.000;2023-04-06T14:57:19;25.20;99.90
38995;DHT22;24769;18.712;99.000;2023-04-06T14:59:46;25.40;98.20
38995;DHT22;24769;18.712;99.000;2023-04-06T15:02:27;25.20;99.40
38995;DHT22;24769;18.712;99.000;2023-04-06T15:04:54;25.20;99.90
38995;DHT22;24769;18.712;99.000;2023-04-06T15:07:21;25.30;99.90
38995;DHT22;24769;18.712;99.000;2023-04-06T15:09:48;25.40;99.20
38995;DHT22;24769;18.712;99.000;2023-04-06T15:12:14;25.20;99.90
38995;DHT22;24769;18.712;99.000;2023-04-06T15:14:41;25.30;99.90
38995;DHT22;24769;18.712;99.000;2023-04-06T15:17:08;25.20;99.90
38995;DHT22;24769;18.712;99.000;2023-04-06T15:19:34;25.20;99.90
38995;DHT22;24769;18.712;99.000;2023-04-06T15:22:01;25.10;99.90
38995;DHT22;24769;18.712;99.000;2023-04-06T15:24:28;25.10;99.90
38995;DHT22;24769;18.712;99.000;2023-04-06T15:26:55;25.10;99.90
38995;DHT22;24769;18.712;99.000;2023-04-06T15:29:22;25.10;99.90
38995;DHT22;24769;18.712;99.000;2023-04-06T15:31:49;25.00;99.90
38995;DHT22;24769;18.712;99.000;2023-04-06T15:34:16;25.00;99.90
38995;DHT22;24769;18.712;99.000;2023-04-06T15:36:43;25.00;99.90